AFV206 FACT-FQMA
Flight info
| Callsign | AFV206 |
|---|---|
| Flight time | 1h 58m |
| Altitude | 35000 |
| Route | TETAN1A TETAN UZ39 BLV UZ36 WRV UT949 TONKA DCT VMA |
| Aircraft | B738/M-SABDFGRVYL/LB2 |
Departure
| Time | 2026-04-29 16:22 |
|---|---|
| Airport | Cape Town International Airport (FACT) |
Arrival
| Time | 2026-04-29 18:21 |
|---|---|
| Airport | Maputo Airport (FQMA) |
| Time | Latitude | Longitude | Altitude | Speed | Heading |
|---|---|---|---|---|---|
| 2026-04-29 15:47 | -33.96838 | 18.59773 | 161 ft | 0 kts | 254° |
| 2026-04-29 15:49 | -33.96899 | 18.59795 | 160 ft | 0 kts | 254° |
| 2026-04-29 15:50 | -33.96901 | 18.59795 | 160 ft | 0 kts | 254° |
| 2026-04-29 15:50 | -33.96903 | 18.59794 | 160 ft | 0 kts | 254° |
| 2026-04-29 16:14 | -33.96903 | 18.59798 | 160 ft | 2 kts | 254° |
| 2026-04-29 16:14 | -33.96898 | 18.59816 | 161 ft | 2 kts | 254° |
| 2026-04-29 16:14 | -33.96894 | 18.59833 | 161 ft | 2 kts | 254° |
| 2026-04-29 16:14 | -33.96890 | 18.59851 | 161 ft | 2 kts | 263° |
| 2026-04-29 16:15 | -33.96891 | 18.59869 | 161 ft | 2 kts | 284° |
| 2026-04-29 16:15 | -33.96897 | 18.59886 | 161 ft | 2 kts | 304° |
| 2026-04-29 16:15 | -33.96907 | 18.59899 | 161 ft | 2 kts | 323° |
| 2026-04-29 16:15 | -33.96919 | 18.59907 | 161 ft | 0 kts | 340° |
| 2026-04-29 16:16 | -33.96925 | 18.59909 | 160 ft | 1 kts | 344° |
| 2026-04-29 16:16 | -33.96926 | 18.59910 | 160 ft | 0 kts | 343° |
| 2026-04-29 16:18 | -33.96919 | 18.59907 | 161 ft | 5 kts | 343° |
| 2026-04-29 16:18 | -33.96846 | 18.59882 | 162 ft | 13 kts | 344° |
| 2026-04-29 16:18 | -33.96748 | 18.59849 | 160 ft | 17 kts | 345° |
| 2026-04-29 16:19 | -33.96630 | 18.59811 | 158 ft | 17 kts | 345° |
| 2026-04-29 16:19 | -33.96513 | 18.59779 | 158 ft | 17 kts | 349° |
| 2026-04-29 16:19 | -33.96394 | 18.59755 | 157 ft | 16 kts | 350° |
| 2026-04-29 16:19 | -33.96278 | 18.59730 | 156 ft | 16 kts | 350° |
| 2026-04-29 16:20 | -33.96182 | 18.59775 | 156 ft | 14 kts | 45° |
| 2026-04-29 16:20 | -33.96114 | 18.59860 | 157 ft | 14 kts | 46° |
| 2026-04-29 16:20 | -33.96090 | 18.59890 | 157 ft | 0 kts | 46° |
| 2026-04-29 16:20 | -33.96074 | 18.59910 | 158 ft | 9 kts | 46° |
| 2026-04-29 16:21 | -33.96043 | 18.60017 | 158 ft | 18 kts | 115° |
| 2026-04-29 16:21 | -33.96158 | 18.60066 | 157 ft | 18 kts | 164° |
| 2026-04-29 16:21 | -33.96319 | 18.60117 | 158 ft | 40 kts | 167° |
| 2026-04-29 16:21 | -33.96820 | 18.60271 | 157 ft | 104 kts | 166° |
| 2026-04-29 16:22 | -33.97718 | 18.60555 | 155 ft | 157 kts | 166° |
| 2026-04-29 16:22 | -33.98851 | 18.60896 | 471 ft | 175 kts | 167° |
| 2026-04-29 16:22 | -34.00068 | 18.61267 | 1079 ft | 181 kts | 165° |
| 2026-04-29 16:22 | -34.01300 | 18.61661 | 1595 ft | 194 kts | 162° |
| 2026-04-29 16:23 | -34.02712 | 18.62103 | 1802 ft | 223 kts | 163° |
| 2026-04-29 16:23 | -34.04266 | 18.62613 | 2246 ft | 238 kts | 163° |
| 2026-04-29 16:23 | -34.05814 | 18.63070 | 3085 ft | 233 kts | 163° |
| 2026-04-29 16:23 | -34.07426 | 18.63593 | 3424 ft | 251 kts | 156° |
| 2026-04-29 16:24 | -34.08849 | 18.64839 | 3983 ft | 256 kts | 124° |
| 2026-04-29 16:24 | -34.09439 | 18.66849 | 4561 ft | 261 kts | 90° |
| 2026-04-29 16:24 | -34.09043 | 18.68987 | 5223 ft | 265 kts | 63° |
| 2026-04-29 16:24 | -34.07992 | 18.70824 | 5903 ft | 268 kts | 52° |
| 2026-04-29 16:25 | -34.06847 | 18.72608 | 6564 ft | 272 kts | 53° |
| 2026-04-29 16:25 | -34.05714 | 18.74469 | 7265 ft | 274 kts | 54° |
| 2026-04-29 16:25 | -34.04608 | 18.76354 | 7925 ft | 277 kts | 54° |
| 2026-04-29 16:25 | -34.03501 | 18.78265 | 8622 ft | 279 kts | 54° |
| 2026-04-29 16:26 | -34.02378 | 18.80205 | 9244 ft | 283 kts | 54° |
| 2026-04-29 16:26 | -34.01257 | 18.82136 | 9937 ft | 284 kts | 54° |
| 2026-04-29 16:26 | -34.00116 | 18.84094 | 10466 ft | 291 kts | 54° |
| 2026-04-29 16:26 | -33.98911 | 18.86158 | 10822 ft | 306 kts | 54° |
| 2026-04-29 16:27 | -33.97643 | 18.88328 | 11137 ft | 321 kts | 54° |
| 2026-04-29 16:27 | -33.96360 | 18.90524 | 11432 ft | 336 kts | 54° |
| 2026-04-29 16:27 | -33.94989 | 18.92870 | 11694 ft | 352 kts | 54° |
| 2026-04-29 16:27 | -33.93552 | 18.95328 | 11988 ft | 366 kts | 54° |
| 2026-04-29 16:28 | -33.92057 | 18.97883 | 12262 ft | 380 kts | 54° |
| 2026-04-29 16:28 | -33.90509 | 19.00526 | 12814 ft | 386 kts | 53° |
| 2026-04-29 16:28 | -33.88959 | 19.03173 | 13394 ft | 390 kts | 53° |
| 2026-04-29 16:28 | -33.87376 | 19.05872 | 14050 ft | 394 kts | 53° |
| 2026-04-29 16:29 | -33.85777 | 19.08596 | 14722 ft | 397 kts | 53° |
| 2026-04-29 16:29 | -33.84173 | 19.11327 | 15288 ft | 403 kts | 53° |
| 2026-04-29 16:29 | -33.82556 | 19.14075 | 15898 ft | 407 kts | 53° |
| 2026-04-29 16:29 | -33.80920 | 19.16856 | 16500 ft | 411 kts | 53° |
| 2026-04-29 16:30 | -33.79240 | 19.19711 | 17127 ft | 415 kts | 53° |
| 2026-04-29 16:30 | -33.77557 | 19.22568 | 17719 ft | 419 kts | 53° |
| 2026-04-29 16:30 | -33.75862 | 19.25444 | 18269 ft | 424 kts | 53° |
| 2026-04-29 16:30 | -33.74137 | 19.28368 | 18768 ft | 429 kts | 52° |
| 2026-04-29 16:31 | -33.72401 | 19.31311 | 19274 ft | 434 kts | 52° |
| 2026-04-29 16:31 | -33.70633 | 19.34302 | 19758 ft | 440 kts | 52° |
| 2026-04-29 16:31 | -33.68848 | 19.37317 | 20289 ft | 444 kts | 52° |
| 2026-04-29 16:31 | -33.67084 | 19.40374 | 20761 ft | 450 kts | 54° |
| 2026-04-29 16:32 | -33.65456 | 19.43606 | 21251 ft | 455 kts | 58° |
| 2026-04-29 16:32 | -33.63934 | 19.47026 | 21690 ft | 461 kts | 60° |
| 2026-04-29 16:32 | -33.62497 | 19.50484 | 22148 ft | 466 kts | 61° |
| 2026-04-29 16:32 | -33.61066 | 19.54046 | 22655 ft | 470 kts | 61° |
| 2026-04-29 16:33 | -33.58217 | 19.61213 | 23301 ft | 484 kts | 60° |
| 2026-04-29 16:33 | -33.56759 | 19.64864 | 23862 ft | 485 kts | 60° |
| 2026-04-29 16:33 | -33.55287 | 19.68527 | 24199 ft | 491 kts | 59° |
| 2026-04-29 16:34 | -33.53785 | 19.72239 | 24582 ft | 494 kts | 59° |
| 2026-04-29 16:34 | -33.52269 | 19.75968 | 25018 ft | 497 kts | 59° |
| 2026-04-29 16:34 | -33.50748 | 19.79693 | 25332 ft | 502 kts | 58° |
| 2026-04-29 16:34 | -33.49196 | 19.83484 | 25626 ft | 508 kts | 58° |
| 2026-04-29 16:35 | -33.47617 | 19.87328 | 26049 ft | 509 kts | 58° |
| 2026-04-29 16:35 | -33.46062 | 19.91112 | 26393 ft | 513 kts | 58° |
| 2026-04-29 16:35 | -33.44481 | 19.94956 | 26927 ft | 512 kts | 57° |
| 2026-04-29 16:35 | -33.42897 | 19.98800 | 27371 ft | 513 kts | 57° |
| 2026-04-29 16:36 | -33.41318 | 20.02628 | 27841 ft | 513 kts | 57° |
| 2026-04-29 16:36 | -33.39720 | 20.06500 | 28436 ft | 510 kts | 57° |
| 2026-04-29 16:36 | -33.38155 | 20.10294 | 28930 ft | 509 kts | 56° |
| 2026-04-29 16:36 | -33.36571 | 20.14118 | 29271 ft | 511 kts | 56° |
| 2026-04-29 16:37 | -33.34983 | 20.17939 | 29497 ft | 516 kts | 56° |
| 2026-04-29 16:37 | -33.33384 | 20.21783 | 29933 ft | 516 kts | 56° |
| 2026-04-29 16:37 | -33.31788 | 20.25617 | 30249 ft | 518 kts | 56° |
| 2026-04-29 16:37 | -33.30723 | 20.28174 | 30516 ft | 517 kts | 56° |
| 2026-04-29 16:38 | -33.28541 | 20.33388 | 31180 ft | 513 kts | 54° |
| 2026-04-29 16:38 | -33.26840 | 20.37084 | 31597 ft | 506 kts | 49° |
| 2026-04-29 16:38 | -33.24913 | 20.40591 | 31878 ft | 502 kts | 45° |
| 2026-04-29 16:38 | -33.22807 | 20.43917 | 32120 ft | 499 kts | 41° |
| 2026-04-29 16:39 | -33.20607 | 20.47101 | 32643 ft | 491 kts | 39° |
| 2026-04-29 16:39 | -33.18394 | 20.50203 | 33131 ft | 487 kts | 38° |
| 2026-04-29 16:39 | -33.16186 | 20.53264 | 33533 ft | 485 kts | 38° |
| 2026-04-29 16:39 | -33.13987 | 20.56308 | 33887 ft | 484 kts | 38° |
| 2026-04-29 16:40 | -33.11784 | 20.59361 | 34123 ft | 486 kts | 37° |
| 2026-04-29 16:40 | -33.09541 | 20.62478 | 34270 ft | 490 kts | 38° |
| 2026-04-29 16:40 | -33.07384 | 20.65488 | 34419 ft | 493 kts | 37° |
| 2026-04-29 16:40 | -33.05110 | 20.68682 | 34761 ft | 491 kts | 37° |
| 2026-04-29 16:41 | -33.02916 | 20.71773 | 34975 ft | 492 kts | 36° |
| 2026-04-29 16:41 | -33.00715 | 20.74883 | 35160 ft | 492 kts | 36° |
| 2026-04-29 16:41 | -32.96305 | 20.81112 | 35168 ft | 489 kts | 36° |
| 2026-04-29 16:42 | -32.91892 | 20.87331 | 35171 ft | 493 kts | 36° |
| 2026-04-29 16:42 | -32.87468 | 20.93557 | 35172 ft | 492 kts | 36° |
| 2026-04-29 16:43 | -32.83049 | 20.99766 | 35173 ft | 491 kts | 36° |
| 2026-04-29 16:43 | -32.78597 | 21.05996 | 35174 ft | 497 kts | 36° |
| 2026-04-29 16:44 | -32.74210 | 21.12160 | 35174 ft | 488 kts | 37° |
| 2026-04-29 16:44 | -32.69775 | 21.18360 | 35173 ft | 494 kts | 36° |
| 2026-04-29 16:45 | -32.65313 | 21.24574 | 35177 ft | 495 kts | 37° |
| 2026-04-29 16:45 | -32.60866 | 21.30784 | 35173 ft | 492 kts | 37° |
| 2026-04-29 16:46 | -32.56400 | 21.36988 | 35176 ft | 497 kts | 36° |
| 2026-04-29 16:46 | -32.51997 | 21.43114 | 35178 ft | 491 kts | 36° |
| 2026-04-29 16:47 | -32.47516 | 21.49306 | 35175 ft | 499 kts | 36° |
| 2026-04-29 16:47 | -32.42984 | 21.55567 | 35176 ft | 495 kts | 37° |
| 2026-04-29 16:48 | -32.38529 | 21.61745 | 35180 ft | 493 kts | 36° |
| 2026-04-29 16:48 | -32.34040 | 21.67931 | 35186 ft | 493 kts | 36° |
| 2026-04-29 16:49 | -32.29533 | 21.74129 | 35193 ft | 500 kts | 36° |
| 2026-04-29 16:49 | -32.25033 | 21.80312 | 35191 ft | 495 kts | 36° |
| 2026-04-29 16:50 | -32.20590 | 21.86423 | 35195 ft | 492 kts | 36° |
| 2026-04-29 16:50 | -32.16137 | 21.92528 | 35204 ft | 496 kts | 36° |
| 2026-04-29 16:51 | -32.11641 | 21.98675 | 35206 ft | 496 kts | 36° |
| 2026-04-29 16:51 | -32.07095 | 22.04864 | 35205 ft | 502 kts | 36° |
| 2026-04-29 16:52 | -32.02564 | 22.11055 | 35211 ft | 495 kts | 36° |
| 2026-04-29 16:52 | -31.98056 | 22.17194 | 35208 ft | 498 kts | 36° |
| 2026-04-29 16:53 | -31.93534 | 22.23329 | 35214 ft | 500 kts | 36° |
| 2026-04-29 16:53 | -31.88979 | 22.29501 | 35209 ft | 500 kts | 36° |
| 2026-04-29 16:54 | -31.84407 | 22.35691 | 35207 ft | 502 kts | 36° |
| 2026-04-29 16:54 | -31.79781 | 22.41942 | 35209 ft | 506 kts | 36° |
| 2026-04-29 16:55 | -31.75219 | 22.48118 | 35212 ft | 501 kts | 37° |
| 2026-04-29 16:55 | -31.70625 | 22.54305 | 35199 ft | 504 kts | 37° |
| 2026-04-29 16:56 | -31.66089 | 22.60399 | 35210 ft | 508 kts | 37° |
| 2026-04-29 16:56 | -31.61481 | 22.66592 | 35199 ft | 501 kts | 36° |
| 2026-04-29 16:57 | -31.56882 | 22.72767 | 35202 ft | 506 kts | 36° |
| 2026-04-29 16:57 | -31.52260 | 22.78952 | 35203 ft | 505 kts | 36° |
| 2026-04-29 16:58 | -31.47637 | 22.85125 | 35201 ft | 506 kts | 36° |
| 2026-04-29 16:58 | -31.42931 | 22.91393 | 35199 ft | 510 kts | 36° |
| 2026-04-29 16:59 | -31.38269 | 22.97614 | 35208 ft | 507 kts | 36° |
| 2026-04-29 16:59 | -31.33676 | 23.03725 | 35213 ft | 510 kts | 36° |
| 2026-04-29 17:00 | -31.29015 | 23.09916 | 35209 ft | 508 kts | 36° |
| 2026-04-29 17:00 | -31.24293 | 23.16170 | 35216 ft | 513 kts | 36° |
| 2026-04-29 17:01 | -31.19568 | 23.22425 | 35218 ft | 512 kts | 36° |
| 2026-04-29 17:01 | -31.14862 | 23.28670 | 35227 ft | 516 kts | 37° |
| 2026-04-29 17:02 | -31.10229 | 23.35012 | 35227 ft | 514 kts | 38° |
| 2026-04-29 17:02 | -31.05612 | 23.41410 | 35237 ft | 519 kts | 38° |
| 2026-04-29 17:03 | -31.00950 | 23.47858 | 35238 ft | 518 kts | 38° |
| 2026-04-29 17:03 | -30.96288 | 23.54282 | 35244 ft | 518 kts | 38° |
| 2026-04-29 17:04 | -30.91655 | 23.60643 | 35238 ft | 519 kts | 38° |
| 2026-04-29 17:04 | -30.86968 | 23.67051 | 35234 ft | 514 kts | 37° |
| 2026-04-29 17:05 | -30.82311 | 23.73407 | 35237 ft | 516 kts | 37° |
| 2026-04-29 17:05 | -30.77645 | 23.79759 | 35235 ft | 517 kts | 37° |
| 2026-04-29 17:06 | -30.72976 | 23.86102 | 35238 ft | 518 kts | 37° |
| 2026-04-29 17:06 | -30.68286 | 23.92471 | 35239 ft | 516 kts | 37° |
| 2026-04-29 17:07 | -30.63607 | 23.98814 | 35235 ft | 517 kts | 38° |
| 2026-04-29 17:07 | -30.58946 | 24.05121 | 35237 ft | 517 kts | 37° |
| 2026-04-29 17:08 | -30.54279 | 24.11443 | 35246 ft | 512 kts | 37° |
| 2026-04-29 17:08 | -30.49626 | 24.17714 | 35250 ft | 516 kts | 38° |
| 2026-04-29 17:09 | -30.44934 | 24.24020 | 35254 ft | 517 kts | 38° |
| 2026-04-29 17:09 | -30.40270 | 24.30294 | 35255 ft | 516 kts | 38° |
| 2026-04-29 17:10 | -30.35548 | 24.36631 | 35255 ft | 519 kts | 38° |
| 2026-04-29 17:10 | -30.30868 | 24.42907 | 35251 ft | 515 kts | 38° |
| 2026-04-29 17:11 | -30.26184 | 24.49181 | 35252 ft | 517 kts | 38° |
| 2026-04-29 17:11 | -30.21455 | 24.55497 | 35248 ft | 515 kts | 38° |
| 2026-04-29 17:12 | -30.16752 | 24.61768 | 35249 ft | 516 kts | 38° |
| 2026-04-29 17:12 | -30.12829 | 24.66992 | 35246 ft | 515 kts | 38° |
| 2026-04-29 17:13 | -30.07364 | 24.74264 | 35249 ft | 516 kts | 38° |
| 2026-04-29 17:13 | -30.02655 | 24.80514 | 35255 ft | 515 kts | 38° |
| 2026-04-29 17:14 | -29.97970 | 24.86725 | 35260 ft | 516 kts | 38° |
| 2026-04-29 17:14 | -29.93270 | 24.92944 | 35262 ft | 513 kts | 38° |
| 2026-04-29 17:15 | -29.88547 | 24.99189 | 35265 ft | 516 kts | 38° |
| 2026-04-29 17:15 | -29.83828 | 25.05414 | 35268 ft | 515 kts | 38° |
| 2026-04-29 17:16 | -29.79145 | 25.11581 | 35270 ft | 514 kts | 38° |
| 2026-04-29 17:16 | -29.74404 | 25.17812 | 35274 ft | 517 kts | 39° |
| 2026-04-29 17:17 | -29.69895 | 25.24304 | 35267 ft | 523 kts | 45° |
| 2026-04-29 17:17 | -29.65831 | 25.31300 | 35264 ft | 530 kts | 49° |
| 2026-04-29 17:18 | -29.61912 | 25.38467 | 35263 ft | 529 kts | 50° |
| 2026-04-29 17:18 | -29.57994 | 25.45638 | 35262 ft | 530 kts | 49° |
| 2026-04-29 17:19 | -29.54035 | 25.52781 | 35258 ft | 529 kts | 49° |
| 2026-04-29 17:19 | -29.50060 | 25.59861 | 35257 ft | 530 kts | 49° |
| 2026-04-29 17:20 | -29.46069 | 25.66926 | 35255 ft | 529 kts | 49° |
| 2026-04-29 17:20 | -29.42044 | 25.74022 | 35255 ft | 529 kts | 48° |
| 2026-04-29 17:21 | -29.38038 | 25.81073 | 35259 ft | 529 kts | 49° |
| 2026-04-29 17:21 | -29.34028 | 25.88118 | 35254 ft | 528 kts | 49° |
| 2026-04-29 17:22 | -29.30031 | 25.95130 | 35259 ft | 530 kts | 49° |
| 2026-04-29 17:22 | -29.26002 | 26.02191 | 35254 ft | 527 kts | 49° |
| 2026-04-29 17:23 | -29.22007 | 26.09179 | 35252 ft | 529 kts | 49° |
| 2026-04-29 17:23 | -29.17954 | 26.16261 | 35254 ft | 530 kts | 49° |
| 2026-04-29 17:24 | -29.13922 | 26.23295 | 35245 ft | 527 kts | 49° |
| 2026-04-29 17:24 | -29.09931 | 26.30313 | 35243 ft | 531 kts | 51° |
| 2026-04-29 17:25 | -29.06301 | 26.37722 | 35236 ft | 533 kts | 56° |
| 2026-04-29 17:25 | -29.02953 | 26.45314 | 35258 ft | 539 kts | 57° |
| 2026-04-29 17:26 | -28.99627 | 26.52977 | 35269 ft | 537 kts | 57° |
| 2026-04-29 17:26 | -28.96298 | 26.60539 | 35289 ft | 536 kts | 57° |
| 2026-04-29 17:27 | -28.92909 | 26.68116 | 35298 ft | 536 kts | 56° |
| 2026-04-29 17:27 | -28.89502 | 26.75659 | 35305 ft | 535 kts | 56° |
| 2026-04-29 17:28 | -28.86133 | 26.83301 | 35313 ft | 539 kts | 59° |
| 2026-04-29 17:28 | -28.83204 | 26.91163 | 35314 ft | 540 kts | 63° |
| 2026-04-29 17:29 | -28.80516 | 26.98996 | 35303 ft | 541 kts | 63° |
| 2026-04-29 17:29 | -28.78157 | 27.05545 | 35315 ft | 538 kts | 60° |
| 2026-04-29 17:30 | -28.74418 | 27.14440 | 35321 ft | 537 kts | 57° |
| 2026-04-29 17:30 | -28.71061 | 27.22020 | 35322 ft | 535 kts | 57° |
| 2026-04-29 17:31 | -28.67708 | 27.29604 | 35326 ft | 538 kts | 57° |
| 2026-04-29 17:31 | -28.64400 | 27.37184 | 35329 ft | 535 kts | 58° |
| 2026-04-29 17:32 | -28.61097 | 27.44808 | 35337 ft | 535 kts | 58° |
| 2026-04-29 17:32 | -28.57816 | 27.52388 | 35341 ft | 536 kts | 58° |
| 2026-04-29 17:33 | -28.54526 | 27.59976 | 35344 ft | 535 kts | 58° |
| 2026-04-29 17:33 | -28.51225 | 27.67578 | 35339 ft | 533 kts | 57° |
| 2026-04-29 17:34 | -28.47914 | 27.75188 | 35352 ft | 534 kts | 57° |
| 2026-04-29 17:34 | -28.44616 | 27.82745 | 35360 ft | 533 kts | 57° |
| 2026-04-29 17:35 | -28.39664 | 27.94070 | 35366 ft | 534 kts | 57° |
| 2026-04-29 17:36 | -28.36361 | 28.01605 | 35374 ft | 534 kts | 58° |
| 2026-04-29 17:36 | -28.33061 | 28.09119 | 35372 ft | 533 kts | 57° |
| 2026-04-29 17:37 | -28.29766 | 28.16605 | 35379 ft | 533 kts | 57° |
| 2026-04-29 17:37 | -28.26459 | 28.24104 | 35372 ft | 532 kts | 57° |
| 2026-04-29 17:38 | -28.23148 | 28.31598 | 35382 ft | 533 kts | 58° |
| 2026-04-29 17:38 | -28.19829 | 28.39099 | 35385 ft | 531 kts | 58° |
| 2026-04-29 17:39 | -28.16497 | 28.46609 | 35391 ft | 532 kts | 57° |
| 2026-04-29 17:39 | -28.13189 | 28.54061 | 35380 ft | 529 kts | 58° |
| 2026-04-29 17:40 | -28.09875 | 28.61511 | 35388 ft | 531 kts | 58° |
| 2026-04-29 17:40 | -28.06577 | 28.68906 | 35378 ft | 530 kts | 57° |
| 2026-04-29 17:41 | -28.03242 | 28.76379 | 35381 ft | 529 kts | 57° |
| 2026-04-29 17:41 | -27.99846 | 28.83821 | 35376 ft | 528 kts | 55° |
| 2026-04-29 17:42 | -27.95730 | 28.90458 | 35384 ft | 511 kts | 38° |
| 2026-04-29 17:42 | -27.90526 | 28.95792 | 35385 ft | 502 kts | 30° |
| 2026-04-29 17:43 | -27.85038 | 29.00615 | 35384 ft | 495 kts | 28° |
| 2026-04-29 17:43 | -27.79592 | 29.05255 | 35393 ft | 499 kts | 30° |
| 2026-04-29 17:43 | -27.76918 | 29.07998 | 35392 ft | 511 kts | 39° |
| 2026-04-29 17:44 | -27.74602 | 29.11108 | 35395 ft | 517 kts | 46° |
| 2026-04-29 17:44 | -27.70555 | 29.17800 | 35400 ft | 521 kts | 52° |
| 2026-04-29 17:45 | -27.66720 | 29.24757 | 35400 ft | 523 kts | 52° |
| 2026-04-29 17:45 | -27.62853 | 29.31740 | 35395 ft | 520 kts | 51° |
| 2026-04-29 17:46 | -27.58962 | 29.38582 | 35397 ft | 521 kts | 51° |
| 2026-04-29 17:46 | -27.55094 | 29.45254 | 35387 ft | 518 kts | 51° |
| 2026-04-29 17:47 | -27.51125 | 29.52031 | 35382 ft | 517 kts | 51° |
| 2026-04-29 17:47 | -27.47159 | 29.58776 | 35379 ft | 519 kts | 51° |
| 2026-04-29 17:48 | -27.43166 | 29.65551 | 35373 ft | 519 kts | 50° |
| 2026-04-29 17:48 | -27.39176 | 29.72322 | 35377 ft | 516 kts | 51° |
| 2026-04-29 17:49 | -27.35214 | 29.79032 | 35377 ft | 516 kts | 50° |
| 2026-04-29 17:49 | -27.31235 | 29.85760 | 35383 ft | 516 kts | 51° |
| 2026-04-29 17:50 | -27.27306 | 29.92396 | 35390 ft | 514 kts | 51° |
| 2026-04-29 17:50 | -27.23363 | 29.99044 | 35390 ft | 516 kts | 51° |
| 2026-04-29 17:51 | -27.19394 | 30.05730 | 35399 ft | 513 kts | 51° |
| 2026-04-29 17:51 | -27.15447 | 30.12371 | 35389 ft | 514 kts | 51° |
| 2026-04-29 17:52 | -27.11464 | 30.19054 | 35388 ft | 514 kts | 51° |
| 2026-04-29 17:52 | -27.07513 | 30.25682 | 35385 ft | 512 kts | 51° |
| 2026-04-29 17:53 | -27.03582 | 30.32262 | 35370 ft | 511 kts | 51° |
| 2026-04-29 17:53 | -26.99678 | 30.38788 | 35364 ft | 510 kts | 51° |
| 2026-04-29 17:54 | -26.95716 | 30.45393 | 35362 ft | 513 kts | 51° |
| 2026-04-29 17:54 | -26.91776 | 30.51958 | 35351 ft | 511 kts | 51° |
| 2026-04-29 17:55 | -26.87804 | 30.58569 | 35344 ft | 510 kts | 51° |
| 2026-04-29 17:55 | -26.83880 | 30.65091 | 35338 ft | 511 kts | 51° |
| 2026-04-29 17:56 | -26.79930 | 30.71649 | 35338 ft | 508 kts | 50° |
| 2026-04-29 17:56 | -26.76253 | 30.78412 | 35332 ft | 513 kts | 58° |
| 2026-04-29 17:57 | -26.73219 | 30.85689 | 35328 ft | 517 kts | 64° |
| 2026-04-29 17:57 | -26.70548 | 30.93144 | 35326 ft | 518 kts | 65° |
| 2026-04-29 17:58 | -26.67980 | 31.00608 | 35316 ft | 517 kts | 65° |
| 2026-04-29 17:58 | -26.66690 | 31.04346 | 35043 ft | 518 kts | 65° |
| 2026-04-29 17:58 | -26.65389 | 31.08093 | 34446 ft | 518 kts | 65° |
| 2026-04-29 17:58 | -26.64080 | 31.11776 | 33747 ft | 516 kts | 64° |
| 2026-04-29 17:59 | -26.62575 | 31.15437 | 33004 ft | 513 kts | 58° |
| 2026-04-29 17:59 | -26.60804 | 31.18880 | 32282 ft | 510 kts | 53° |
| 2026-04-29 17:59 | -26.58831 | 31.22173 | 31777 ft | 503 kts | 50° |
| 2026-04-29 17:59 | -26.56787 | 31.25300 | 31282 ft | 497 kts | 48° |
| 2026-04-29 18:00 | -26.54686 | 31.28335 | 30846 ft | 490 kts | 46° |
| 2026-04-29 18:00 | -26.52668 | 31.31222 | 30373 ft | 487 kts | 48° |
| 2026-04-29 18:00 | -26.50749 | 31.34373 | 29846 ft | 487 kts | 55° |
| 2026-04-29 18:00 | -26.49184 | 31.37741 | 29311 ft | 488 kts | 62° |
| 2026-04-29 18:01 | -26.47867 | 31.41244 | 28854 ft | 485 kts | 65° |
| 2026-04-29 18:01 | -26.46688 | 31.44784 | 28375 ft | 481 kts | 67° |
| 2026-04-29 18:01 | -26.45578 | 31.48284 | 27881 ft | 478 kts | 68° |
| 2026-04-29 18:01 | -26.44487 | 31.51753 | 27389 ft | 474 kts | 68° |
| 2026-04-29 18:02 | -26.43376 | 31.55246 | 26977 ft | 468 kts | 67° |
| 2026-04-29 18:02 | -26.42313 | 31.58540 | 26531 ft | 465 kts | 67° |
| 2026-04-29 18:02 | -26.41208 | 31.61907 | 26011 ft | 462 kts | 67° |
| 2026-04-29 18:02 | -26.40079 | 31.65298 | 25545 ft | 458 kts | 66° |
| 2026-04-29 18:03 | -26.38948 | 31.68596 | 25016 ft | 455 kts | 64° |
| 2026-04-29 18:03 | -26.37707 | 31.71747 | 24587 ft | 447 kts | 59° |
| 2026-04-29 18:03 | -26.36122 | 31.74809 | 24106 ft | 439 kts | 52° |
| 2026-04-29 18:03 | -26.34405 | 31.77603 | 23647 ft | 433 kts | 49° |
| 2026-04-29 18:04 | -26.32601 | 31.80315 | 23171 ft | 429 kts | 48° |
| 2026-04-29 18:04 | -26.30809 | 31.82927 | 22642 ft | 427 kts | 47° |
| 2026-04-29 18:04 | -26.28970 | 31.85592 | 22149 ft | 424 kts | 47° |
| 2026-04-29 18:04 | -26.27188 | 31.88195 | 21737 ft | 419 kts | 48° |
| 2026-04-29 18:05 | -26.25514 | 31.90662 | 21140 ft | 414 kts | 48° |
| 2026-04-29 18:05 | -26.23791 | 31.93225 | 20421 ft | 408 kts | 49° |
| 2026-04-29 18:05 | -26.22103 | 31.95751 | 19683 ft | 402 kts | 49° |
| 2026-04-29 18:05 | -26.20456 | 31.98224 | 18933 ft | 397 kts | 49° |
| 2026-04-29 18:06 | -26.18830 | 32.00673 | 18181 ft | 391 kts | 49° |
| 2026-04-29 18:06 | -26.17225 | 32.03093 | 17430 ft | 386 kts | 49° |
| 2026-04-29 18:06 | -26.15639 | 32.05486 | 16653 ft | 381 kts | 50° |
| 2026-04-29 18:06 | -26.14064 | 32.07858 | 15852 ft | 378 kts | 51° |
| 2026-04-29 18:07 | -26.12516 | 32.10199 | 15054 ft | 374 kts | 52° |
| 2026-04-29 18:07 | -26.11077 | 32.12624 | 14214 ft | 373 kts | 58° |
| 2026-04-29 18:07 | -26.09781 | 32.15117 | 13445 ft | 368 kts | 61° |
| 2026-04-29 18:07 | -26.08567 | 32.17595 | 12734 ft | 363 kts | 62° |
| 2026-04-29 18:08 | -26.07381 | 32.20044 | 12004 ft | 358 kts | 62° |
| 2026-04-29 18:08 | -26.06189 | 32.22482 | 11364 ft | 351 kts | 61° |
| 2026-04-29 18:08 | -26.05020 | 32.24835 | 10849 ft | 341 kts | 61° |
| 2026-04-29 18:08 | -26.03868 | 32.27127 | 10592 ft | 337 kts | 61° |
| 2026-04-29 18:09 | -26.02760 | 32.29313 | 10467 ft | 318 kts | 60° |
| 2026-04-29 18:09 | -26.01679 | 32.31436 | 10322 ft | 301 kts | 60° |
| 2026-04-29 18:09 | -26.00632 | 32.33492 | 9983 ft | 308 kts | 60° |
| 2026-04-29 18:09 | -25.99582 | 32.35548 | 9620 ft | 304 kts | 60° |
| 2026-04-29 18:10 | -25.98534 | 32.37600 | 9251 ft | 304 kts | 60° |
| 2026-04-29 18:10 | -25.97482 | 32.39659 | 8905 ft | 302 kts | 60° |
| 2026-04-29 18:10 | -25.96450 | 32.41679 | 8551 ft | 301 kts | 60° |
| 2026-04-29 18:10 | -25.95411 | 32.43711 | 8195 ft | 300 kts | 59° |
| 2026-04-29 18:11 | -25.94384 | 32.45717 | 7837 ft | 290 kts | 59° |
| 2026-04-29 18:11 | -25.93397 | 32.47647 | 7513 ft | 280 kts | 59° |
| 2026-04-29 18:11 | -25.92450 | 32.49499 | 7190 ft | 271 kts | 59° |
| 2026-04-29 18:11 | -25.91525 | 32.51308 | 6893 ft | 272 kts | 59° |
| 2026-04-29 18:12 | -25.90566 | 32.53178 | 6538 ft | 275 kts | 58° |
| 2026-04-29 18:12 | -25.89673 | 32.54914 | 6244 ft | 273 kts | 58° |
| 2026-04-29 18:12 | -25.88715 | 32.56774 | 5924 ft | 271 kts | 59° |
| 2026-04-29 18:12 | -25.87790 | 32.58582 | 5610 ft | 268 kts | 59° |
| 2026-04-29 18:13 | -25.86787 | 32.60303 | 5297 ft | 265 kts | 50° |
| 2026-04-29 18:13 | -25.85385 | 32.61597 | 4968 ft | 255 kts | 27° |
| 2026-04-29 18:13 | -25.83764 | 32.62377 | 4729 ft | 252 kts | 16° |
| 2026-04-29 18:13 | -25.82037 | 32.62417 | 4494 ft | 257 kts | 344° |
| 2026-04-29 18:14 | -25.80460 | 32.61514 | 4327 ft | 251 kts | 327° |
| 2026-04-29 18:14 | -25.79012 | 32.60480 | 4250 ft | 233 kts | 332° |
| 2026-04-29 18:14 | -25.77610 | 32.59716 | 4130 ft | 217 kts | 340° |
| 2026-04-29 18:14 | -25.76177 | 32.59178 | 3762 ft | 213 kts | 355° |
| 2026-04-29 18:15 | -25.74786 | 32.59420 | 3556 ft | 197 kts | 31° |
| 2026-04-29 18:15 | -25.73744 | 32.60292 | 3583 ft | 181 kts | 48° |
| 2026-04-29 18:15 | -25.72970 | 32.61393 | 3419 ft | 179 kts | 65° |
| 2026-04-29 18:15 | -25.72677 | 32.62693 | 3237 ft | 171 kts | 90° |
| 2026-04-29 18:16 | -25.72818 | 32.63966 | 3072 ft | 161 kts | 103° |
| 2026-04-29 18:16 | -25.73241 | 32.65070 | 2923 ft | 160 kts | 122° |
| 2026-04-29 18:16 | -25.74016 | 32.65931 | 2843 ft | 156 kts | 141° |
| 2026-04-29 18:16 | -25.74980 | 32.66501 | 2710 ft | 155 kts | 156° |
| 2026-04-29 18:17 | -25.76053 | 32.66619 | 2593 ft | 162 kts | 187° |
| 2026-04-29 18:17 | -25.77149 | 32.66200 | 2481 ft | 165 kts | 199° |
| 2026-04-29 18:17 | -25.78182 | 32.65666 | 2324 ft | 161 kts | 202° |
| 2026-04-29 18:17 | -25.79176 | 32.65087 | 2178 ft | 158 kts | 204° |
| 2026-04-29 18:18 | -25.80146 | 32.64502 | 2017 ft | 158 kts | 204° |
| 2026-04-29 18:18 | -25.81113 | 32.63919 | 1858 ft | 157 kts | 205° |
| 2026-04-29 18:18 | -25.82074 | 32.63334 | 1710 ft | 156 kts | 205° |
| 2026-04-29 18:18 | -25.83019 | 32.62761 | 1622 ft | 156 kts | 204° |
| 2026-04-29 18:19 | -25.83969 | 32.62183 | 1389 ft | 151 kts | 205° |
| 2026-04-29 18:19 | -25.84869 | 32.61634 | 1142 ft | 144 kts | 205° |
| 2026-04-29 18:19 | -25.85726 | 32.61110 | 940 ft | 139 kts | 206° |
| 2026-04-29 18:19 | -25.86587 | 32.60590 | 818 ft | 137 kts | 207° |
| 2026-04-29 18:20 | -25.87447 | 32.60072 | 653 ft | 141 kts | 206° |
| 2026-04-29 18:20 | -25.88318 | 32.59553 | 462 ft | 141 kts | 207° |
| 2026-04-29 18:20 | -25.89167 | 32.59037 | 286 ft | 140 kts | 208° |
| 2026-04-29 18:20 | -25.89982 | 32.58550 | 156 ft | 129 kts | 209° |
| 2026-04-29 18:21 | -25.90612 | 32.58157 | 144 ft | 73 kts | 208° |
| 2026-04-29 18:21 | -25.90903 | 32.57983 | 143 ft | 28 kts | 203° |
| 2026-04-29 18:21 | -25.91092 | 32.57995 | 141 ft | 26 kts | 166° |
| 2026-04-29 18:21 | -25.91228 | 32.57987 | 141 ft | 17 kts | 207° |
| 2026-04-29 18:22 | -25.91325 | 32.57927 | 140 ft | 15 kts | 209° |
| 2026-04-29 18:22 | -25.91424 | 32.57867 | 137 ft | 16 kts | 208° |
| 2026-04-29 18:22 | -25.91526 | 32.57804 | 135 ft | 16 kts | 209° |
| 2026-04-29 18:22 | -25.91626 | 32.57744 | 135 ft | 14 kts | 208° |
| 2026-04-29 18:23 | -25.91713 | 32.57690 | 135 ft | 13 kts | 208° |
| 2026-04-29 18:23 | -25.91794 | 32.57643 | 134 ft | 13 kts | 207° |
| 2026-04-29 18:23 | -25.91878 | 32.57594 | 133 ft | 13 kts | 208° |
| 2026-04-29 18:23 | -25.91955 | 32.57546 | 134 ft | 11 kts | 210° |
| 2026-04-29 18:24 | -25.92024 | 32.57502 | 135 ft | 13 kts | 210° |
| 2026-04-29 18:24 | -25.92112 | 32.57447 | 134 ft | 12 kts | 209° |
| 2026-04-29 18:24 | -25.92170 | 32.57411 | 135 ft | 8 kts | 208° |
| 2026-04-29 18:24 | -25.92235 | 32.57373 | 135 ft | 12 kts | 208° |
| 2026-04-29 18:25 | -25.92307 | 32.57330 | 135 ft | 11 kts | 207° |
| 2026-04-29 18:25 | -25.92376 | 32.57289 | 135 ft | 10 kts | 208° |
| 2026-04-29 18:25 | -25.92430 | 32.57265 | 135 ft | 6 kts | 158° |
| 2026-04-29 18:25 | -25.92453 | 32.57296 | 135 ft | 4 kts | 119° |
| 2026-04-29 18:26 | -25.92461 | 32.57311 | 135 ft | 1 kts | 120° |
| 2026-04-29 18:26 | -25.92462 | 32.57314 | 135 ft | 0 kts | 119° |
| 2026-04-29 18:26 | -25.92464 | 32.57318 | 135 ft | 0 kts | 119° |